Time;durP1;ratioP1;P1;durP2;ratioP2;P2;SDS_P1;SDS_P2;PMS_P1;PMS_P2;Temp;Humidity;BMP_temperature;BMP_pressure;BME280_temperature;BME280_humidity;BME280_pressure;Samples;Min_cycle;Max_cycle;Signal;HPM_P1;HPM_P2
2021/01/29 00:00:17;;;;;;;22.87;14.23;;;;;;;;;;4991484;28;20176;-74
2021/01/29 00:02:43;;;;;;;23.60;14.03;;;;;;;;;;4991744;28;20561;-74
2021/01/29 00:05:09;;;;;;;22.03;14.20;;;;;;;;;;4991579;28;20657;-74
2021/01/29 00:07:35;;;;;;;20.83;13.47;;;;;;;;;;4992650;28;20200;-74
2021/01/29 00:10:01;;;;;;;20.07;13.40;;;;;;;;;;4991366;28;20172;-74
2021/01/29 00:12:27;;;;;;;19.50;12.77;;;;;;;;;;4991488;28;20200;-74
2021/01/29 00:14:53;;;;;;;20.87;12.77;;;;;;;;;;4992698;28;20523;-75
2021/01/29 00:17:19;;;;;;;19.37;12.40;;;;;;;;;;4975179;28;20197;-74
2021/01/29 00:19:45;;;;;;;19.10;12.37;;;;;;;;;;4991124;28;20251;-73
2021/01/29 00:22:11;;;;;;;21.23;13.00;;;;;;;;;;4992547;28;20176;-74
2021/01/29 00:24:37;;;;;;;21.53;12.87;;;;;;;;;;4992716;28;20674;-74
2021/01/29 00:27:03;;;;;;;19.53;12.43;;;;;;;;;;4991401;28;20224;-75
2021/01/29 00:29:29;;;;;;;19.80;12.13;;;;;;;;;;4991153;28;20209;-74
2021/01/29 00:31:55;;;;;;;18.97;12.47;;;;;;;;;;4991361;28;20211;-74
2021/01/29 00:34:21;;;;;;;19.77;12.90;;;;;;;;;;4991365;28;20182;-73
2021/01/29 00:36:47;;;;;;;20.10;12.47;;;;;;;;;;4992404;28;20199;-74
2021/01/29 00:39:13;;;;;;;21.00;13.80;;;;;;;;;;4991167;28;20250;-73
2021/01/29 00:41:39;;;;;;;22.30;13.17;;;;;;;;;;4991222;28;20194;-74
2021/01/29 00:44:05;;;;;;;21.83;14.23;;;;;;;;;;4975135;28;20194;-74
2021/01/29 00:46:31;;;;;;;20.37;13.17;;;;;;;;;;4991143;28;20201;-73
2021/01/29 00:48:57;;;;;;;22.43;13.13;;;;;;;;;;4991151;28;20188;-74
2021/01/29 00:51:23;;;;;;;20.63;13.80;;;;;;;;;;4991012;28;20709;-75
2021/01/29 00:53:49;;;;;;;21.27;13.43;;;;;;;;;;4974986;28;20648;-75
2021/01/29 00:56:15;;;;;;;21.77;13.60;;;;;;;;;;4995881;28;20679;-74
2021/01/29 00:58:41;;;;;;;22.60;13.60;;;;;;;;;;4994734;28;20605;-75
2021/01/29 01:01:07;;;;;;;20.03;13.53;;;;;;;;;;5010231;28;20186;-76
2021/01/29 01:03:33;;;;;;;22.13;13.77;;;;;;;;;;5011819;28;20202;-75
2021/01/29 01:05:59;;;;;;;22.93;13.97;;;;;;;;;;4994196;28;20267;-76
2021/01/29 01:08:25;;;;;;;23.47;13.90;;;;;;;;;;5012086;28;20738;-74
2021/01/29 01:10:51;;;;;;;23.77;14.57;;;;;;;;;;5013692;28;20208;-74
2021/01/29 01:13:17;;;;;;;21.90;14.43;;;;;;;;;;4998001;28;20191;-74
2021/01/29 01:15:43;;;;;;;23.30;14.30;;;;;;;;;;5014214;28;20180;-74
2021/01/29 01:18:09;;;;;;;23.00;14.43;;;;;;;;;;5014192;28;20186;-74
2021/01/29 01:20:35;;;;;;;21.03;14.00;;;;;;;;;;5014864;28;20180;-74
2021/01/29 01:23:01;;;;;;;26.07;14.53;;;;;;;;;;5013947;28;20271;-74
2021/01/29 01:25:27;;;;;;;20.77;14.03;;;;;;;;;;5014151;28;20198;-74
2021/01/29 01:27:53;;;;;;;23.47;15.23;;;;;;;;;;4997497;28;20200;-74
2021/01/29 01:30:24;;;;;;;24.13;14.37;;;;;;;;;;5014671;28;20186;-75
2021/01/29 01:32:50;;;;;;;25.30;15.60;;;;;;;;;;4997619;28;20168;-75
2021/01/29 01:35:16;;;;;;;22.70;15.10;;;;;;;;;;4997412;28;20175;-75
2021/01/29 01:37:42;;;;;;;24.00;15.10;;;;;;;;;;5013688;28;20231;-74
2021/01/29 01:40:08;;;;;;;24.07;15.00;;;;;;;;;;5013481;28;20397;-75
2021/01/29 01:42:34;;;;;;;25.93;16.20;;;;;;;;;;5013684;28;20553;-74
2021/01/29 01:45:00;;;;;;;26.87;16.20;;;;;;;;;;4997230;28;20179;-75
2021/01/29 01:47:34;;;;;;;23.73;15.27;;;;;;;;;;5013544;28;20196;-75
2021/01/29 01:50:01;;;;;;;27.00;16.13;;;;;;;;;;4996953;28;20178;-75
2021/01/29 01:52:29;;;;;;;27.37;15.77;;;;;;;;;;5013494;28;20560;-75
2021/01/29 01:54:58;;;;;;;28.57;15.73;;;;;;;;;;5013393;28;20183;-75
2021/01/29 01:57:24;;;;;;;29.50;16.50;;;;;;;;;;4996951;28;20207;-74
2021/01/29 01:59:55;;;;;;;27.10;15.97;;;;;;;;;;4996586;28;20184;-77
2021/01/29 02:02:22;;;;;;;29.93;15.87;;;;;;;;;;5013313;28;20203;-74
2021/01/29 02:04:48;;;;;;;27.87;16.73;;;;;;;;;;5013250;28;20190;-76
2021/01/29 02:07:14;;;;;;;29.77;16.83;;;;;;;;;;4996826;28;20222;-74
2021/01/29 02:09:40;;;;;;;31.73;17.40;;;;;;;;;;5013908;28;20237;-74
2021/01/29 02:12:07;;;;;;;28.27;16.63;;;;;;;;;;5013098;28;20742;-75
2021/01/29 02:14:33;;;;;;;29.10;17.03;;;;;;;;;;5013104;28;20194;-74
2021/01/29 02:17:04;;;;;;;31.97;17.73;;;;;;;;;;5012978;28;20199;-75
2021/01/29 02:19:46;;;;;;;30.83;16.77;;;;;;;;;;5012356;28;20171;-74
2021/01/29 02:22:18;;;;;;;28.70;16.63;;;;;;;;;;5013088;28;20168;-74
2021/01/29 02:24:56;;;;;;;36.00;17.00;;;;;;;;;;5013023;28;20849;-74
2021/01/29 02:27:22;;;;;;;40.07;17.93;;;;;;;;;;5012710;28;20253;-74
2021/01/29 02:29:54;;;;;;;39.60;17.83;;;;;;;;;;5012751;28;20249;-74
2021/01/29 02:32:26;;;;;;;30.37;17.17;;;;;;;;;;5013730;28;20199;-74
2021/01/29 02:35:04;;;;;;;29.73;17.37;;;;;;;;;;5013826;28;20179;-75
2021/01/29 02:37:49;;;;;;;30.63;16.93;;;;;;;;;;5013705;28;20195;-74
2021/01/29 02:40:35;;;;;;;31.00;17.43;;;;;;;;;;5013851;28;20535;-74
2021/01/29 02:43:05;;;;;;;35.10;16.97;;;;;;;;;;5012585;28;20247;-75
2021/01/29 02:45:36;;;;;;;31.33;17.40;;;;;;;;;;5012485;28;20586;-74
2021/01/29 02:48:16;;;;;;;31.20;17.13;;;;;;;;;;5012352;28;20180;-75
2021/01/29 02:50:51;;;;;;;28.23;16.23;;;;;;;;;;5013230;28;20685;-75
2021/01/29 02:53:19;;;;;;;32.47;17.57;;;;;;;;;;5013463;28;20275;-75
2021/01/29 02:55:46;;;;;;;35.53;18.17;;;;;;;;;;4995842;28;20832;-74
2021/01/29 02:58:28;;;;;;;28.70;16.97;;;;;;;;;;4996038;28;20175;-74
2021/01/29 03:00:57;;;;;;;33.80;16.83;;;;;;;;;;4995555;28;20320;-74
2021/01/29 03:03:30;;;;;;;32.83;17.20;;;;;;;;;;4995749;28;20274;-73
2021/01/29 03:05:57;;;;;;;29.97;17.37;;;;;;;;;;5011283;28;20279;-74
2021/01/29 03:08:24;;;;;;;36.40;17.40;;;;;;;;;;4995603;28;20187;-73
2021/01/29 03:10:50;;;;;;;37.83;17.17;;;;;;;;;;5011575;28;20203;-75
2021/01/29 03:13:17;;;;;;;34.40;17.43;;;;;;;;;;5013129;28;20237;-75
2021/01/29 03:15:57;;;;;;;34.07;17.37;;;;;;;;;;5011890;28;20186;-74
2021/01/29 03:18:27;;;;;;;37.87;16.63;;;;;;;;;;5012929;28;20649;-74
2021/01/29 03:20:52;;;;;;;35.27;18.00;;;;;;;;;;5012730;28;20186;-75
2021/01/29 03:23:28;;;;;;;33.27;17.07;;;;;;;;;;5012830;28;20183;-74
2021/01/29 03:25:56;;;;;;;29.93;16.80;;;;;;;;;;5012891;28;20182;-74
2021/01/29 03:28:23;;;;;;;35.47;16.90;;;;;;;;;;5011767;28;20184;-74
2021/01/29 03:30:49;;;;;;;34.60;16.80;;;;;;;;;;5010959;28;20262;-75
2021/01/29 03:33:15;;;;;;;36.33;17.13;;;;;;;;;;4994842;28;20232;-75
2021/01/29 03:35:42;;;;;;;31.13;16.77;;;;;;;;;;4995120;28;20234;-74
2021/01/29 03:38:20;;;;;;;32.57;17.17;;;;;;;;;;5011500;28;20198;-75
2021/01/29 03:40:48;;;;;;;28.60;16.23;;;;;;;;;;5012473;28;20236;-75
2021/01/29 03:43:14;;;;;;;31.57;15.93;;;;;;;;;;5011507;28;20190;-76
2021/01/29 03:45:48;;;;;;;31.07;16.43;;;;;;;;;;5011133;28;20184;-74
2021/01/29 03:48:20;;;;;;;31.47;16.90;;;;;;;;;;5011466;28;20634;-76
2021/01/29 03:50:49;;;;;;;30.53;15.60;;;;;;;;;;5010828;28;20214;-75
2021/01/29 03:53:27;;;;;;;31.13;16.77;;;;;;;;;;5011201;28;20207;-75
2021/01/29 03:56:08;;;;;;;28.70;15.10;;;;;;;;;;5011120;28;20245;-74
2021/01/29 03:58:34;;;;;;;34.30;16.60;;;;;;;;;;5011205;28;20245;-75
2021/01/29 04:01:18;;;;;;;33.93;16.40;;;;;;;;;;5010870;28;20183;-76
2021/01/29 04:03:48;;;;;;;32.03;16.23;;;;;;;;;;4995270;28;20210;-74
2021/01/29 04:06:23;;;;;;;29.77;16.10;;;;;;;;;;5010999;28;20258;-75
2021/01/29 04:09:08;;;;;;;27.93;16.43;;;;;;;;;;4994820;28;20194;-75
2021/01/29 04:11:39;;;;;;;27.70;14.97;;;;;;;;;;5010876;28;20223;-77
2021/01/29 04:14:07;;;;;;;29.43;16.10;;;;;;;;;;5011620;28;20262;-76
2021/01/29 04:16:42;;;;;;;29.63;15.80;;;;;;;;;;5011657;28;20195;-77
2021/01/29 04:19:13;;;;;;;29.23;15.73;;;;;;;;;;4995396;28;20180;-76
2021/01/29 04:21:45;;;;;;;28.83;16.50;;;;;;;;;;5011800;28;20184;-78
2021/01/29 04:24:15;;;;;;;28.17;15.43;;;;;;;;;;4995701;28;20214;-76
2021/01/29 04:27:00;;;;;;;30.70;15.30;;;;;;;;;;5011604;28;20207;-76
2021/01/29 04:29:28;;;;;;;30.53;16.37;;;;;;;;;;5011224;28;20661;-77
2021/01/29 04:31:55;;;;;;;27.80;16.00;;;;;;;;;;4995307;28;20246;-76
2021/01/29 04:34:22;;;;;;;28.83;16.33;;;;;;;;;;5011984;28;20554;-77
2021/01/29 04:36:48;;;;;;;30.03;15.70;;;;;;;;;;5012054;28;20283;-76
2021/01/29 04:39:14;;;;;;;30.20;16.10;;;;;;;;;;5011561;28;20183;-77
2021/01/29 04:41:52;;;;;;;31.87;16.00;;;;;;;;;;5010743;28;20193;-76
2021/01/29 04:44:30;;;;;;;32.77;16.67;;;;;;;;;;5015274;28;20225;-76
2021/01/29 04:47:12;;;;;;;30.60;16.80;;;;;;;;;;5014521;28;20195;-76
2021/01/29 04:50:11;;;;;;;30.17;15.60;;;;;;;;;;4998027;28;20651;-76
2021/01/29 04:52:43;;;;;;;34.40;17.00;;;;;;;;;;4962076;28;20227;-76
2021/01/29 04:55:21;;;;;;;30.70;15.93;;;;;;;;;;5014442;28;20242;-76
2021/01/29 04:57:53;;;;;;;32.07;16.17;;;;;;;;;;5015363;28;20215;-76
2021/01/29 05:00:41;;;;;;;30.13;16.20;;;;;;;;;;5015225;28;20183;-76
2021/01/29 05:03:15;;;;;;;35.37;17.03;;;;;;;;;;5014246;28;20554;-76
2021/01/29 05:05:51;;;;;;;32.30;16.53;;;;;;;;;;5014245;28;20232;-76
2021/01/29 05:08:29;;;;;;;27.97;16.20;;;;;;;;;;5015392;28;20713;-76
2021/01/29 05:10:56;;;;;;;28.53;15.77;;;;;;;;;;5013799;28;20649;-76
2021/01/29 05:13:35;;;;;;;29.60;15.93;;;;;;;;;;5013898;28;20179;-76
2021/01/29 05:16:04;;;;;;;29.10;15.63;;;;;;;;;;5015640;28;20219;-76
2021/01/29 05:18:33;;;;;;;28.37;16.70;;;;;;;;;;5014010;28;20263;-76
2021/01/29 05:21:02;;;;;;;31.33;16.23;;;;;;;;;;5014934;28;20188;-76
2021/01/29 05:23:47;;;;;;;32.90;17.73;;;;;;;;;;5013805;28;20205;-76
2021/01/29 05:26:28;;;;;;;32.13;17.37;;;;;;;;;;5014997;28;20778;-76
2021/01/29 05:28:57;;;;;;;30.63;16.47;;;;;;;;;;5013850;28;20164;-76
2021/01/29 05:31:34;;;;;;;27.80;15.10;;;;;;;;;;5013350;28;20254;-76
2021/01/29 05:34:10;;;;;;;31.43;16.73;;;;;;;;;;5013845;28;20164;-76
2021/01/29 05:36:55;;;;;;;30.30;16.73;;;;;;;;;;5013691;28;20238;-76
2021/01/29 05:39:31;;;;;;;28.60;15.40;;;;;;;;;;5014613;28;20282;-76
2021/01/29 05:42:12;;;;;;;25.60;14.93;;;;;;;;;;5013213;28;20205;-76
2021/01/29 05:44:52;;;;;;;26.60;15.90;;;;;;;;;;5012242;28;20193;-76
2021/01/29 05:47:42;;;;;;;27.20;14.90;;;;;;;;;;5013096;28;20299;-76
2021/01/29 05:50:23;;;;;;;26.53;15.63;;;;;;;;;;5006202;28;20204;-79
2021/01/29 05:52:52;;;;;;;25.60;15.37;;;;;;;;;;5014695;28;20191;-77
2021/01/29 05:55:20;;;;;;;28.50;15.53;;;;;;;;;;5013933;28;20222;-78
2021/01/29 05:58:04;;;;;;;25.47;16.30;;;;;;;;;;5013284;28;20564;-79
2021/01/29 06:00:30;;;;;;;28.63;16.27;;;;;;;;;;5014146;28;20186;-78
2021/01/29 06:03:05;;;;;;;29.17;16.93;;;;;;;;;;5014397;28;20179;-79
2021/01/29 06:05:43;;;;;;;28.27;15.63;;;;;;;;;;5013302;28;20163;-79
2021/01/29 06:08:28;;;;;;;29.57;15.83;;;;;;;;;;5014603;28;20189;-78
2021/01/29 06:10:55;;;;;;;26.37;15.53;;;;;;;;;;5014114;28;20206;-79
2021/01/29 06:13:47;;;;;;;30.23;15.97;;;;;;;;;;5013153;28;20207;-77
2021/01/29 06:16:23;;;;;;;32.47;16.27;;;;;;;;;;4992321;28;20242;-79
2021/01/29 06:18:52;;;;;;;23.77;14.73;;;;;;;;;;4997742;28;20179;-79
2021/01/29 06:21:37;;;;;;;28.80;15.73;;;;;;;;;;5015101;28;20621;-79
2021/01/29 06:24:12;;;;;;;26.80;14.73;;;;;;;;;;5045016;22;20847;-79
2021/01/29 06:27:03;;;;;;;27.50;15.47;;;;;;;;;;5033195;28;20768;-76
2021/01/29 06:29:38;;;;;;;28.60;15.33;;;;;;;;;;5032432;28;20695;-76
2021/01/29 06:32:23;;;;;;;28.50;15.00;;;;;;;;;;5033618;28;20669;-75
2021/01/29 06:35:02;;;;;;;29.70;16.53;;;;;;;;;;5033508;28;20661;-76
2021/01/29 06:37:28;;;;;;;27.57;15.77;;;;;;;;;;5032325;28;20205;-75
2021/01/29 06:40:02;;;;;;;32.83;16.30;;;;;;;;;;5032077;28;20217;-81
2021/01/29 06:42:50;;;;;;;28.93;16.10;;;;;;;;;;5031732;28;20209;-78
2021/01/29 06:45:51;;;;;;;29.30;15.70;;;;;;;;;;5032052;28;20203;-79
2021/01/29 06:48:35;;;;;;;25.03;15.30;;;;;;;;;;4951622;29;20190;-79
2021/01/29 06:51:01;;;;;;;32.83;16.57;;;;;;;;;;5007265;28;20219;-78
2021/01/29 06:53:33;;;;;;;25.77;14.97;;;;;;;;;;5012246;28;20199;-77
2021/01/29 06:56:06;;;;;;;28.03;15.10;;;;;;;;;;5015285;28;20726;-78
2021/01/29 06:58:35;;;;;;;23.63;14.83;;;;;;;;;;5031563;28;20175;-76
2021/01/29 07:01:07;;;;;;;28.00;15.50;;;;;;;;;;5031607;28;20182;-76
2021/01/29 07:03:43;;;;;;;26.03;15.07;;;;;;;;;;5031637;28;20206;-76
2021/01/29 07:06:27;;;;;;;25.23;14.23;;;;;;;;;;5033015;28;20181;-77
2021/01/29 07:08:59;;;;;;;35.77;15.03;;;;;;;;;;5032891;28;20654;-76
2021/01/29 07:11:44;;;;;;;23.50;13.77;;;;;;;;;;5030892;28;20745;-76
2021/01/29 07:14:25;;;;;;;28.43;14.03;;;;;;;;;;5031452;28;20199;-76
2021/01/29 07:17:07;;;;;;;27.70;14.77;;;;;;;;;;5030878;28;20174;-76
2021/01/29 07:19:48;;;;;;;20.87;13.17;;;;;;;;;;5028569;28;20190;-76
2021/01/29 07:22:20;;;;;;;22.93;13.57;;;;;;;;;;5016726;28;20191;-76
2021/01/29 07:24:53;;;;;;;24.03;13.80;;;;;;;;;;5009360;28;20227;-76
2021/01/29 07:27:22;;;;;;;26.10;13.67;;;;;;;;;;5031118;28;20175;-76
2021/01/29 07:30:03;;;;;;;26.27;14.47;;;;;;;;;;5030692;28;20185;-76
2021/01/29 07:32:36;;;;;;;29.23;14.00;;;;;;;;;;5030931;28;20206;-77
2021/01/29 07:35:05;;;;;;;25.63;13.73;;;;;;;;;;5031020;28;20227;-76
2021/01/29 07:37:58;;;;;;;25.87;14.10;;;;;;;;;;5032190;28;20183;-78
2021/01/29 07:40:30;;;;;;;31.17;15.43;;;;;;;;;;5028374;28;20344;-81
2021/01/29 07:43:11;;;;;;;26.40;13.60;;;;;;;;;;5015253;28;20175;-79
2021/01/29 07:45:45;;;;;;;27.07;15.40;;;;;;;;;;5031672;28;20179;-80
2021/01/29 07:48:40;;;;;;;25.93;14.33;;;;;;;;;;5031719;28;20531;-78
2021/01/29 07:51:06;;;;;;;26.87;14.40;;;;;;;;;;4995309;28;20220;-78
2021/01/29 07:53:45;;;;;;;30.60;15.33;;;;;;;;;;5032876;28;20213;-80
2021/01/29 07:56:30;;;;;;;25.50;14.40;;;;;;;;;;5034708;28;20159;-80
2021/01/29 07:59:13;;;;;;;21.87;13.43;;;;;;;;;;5018634;28;20179;-85
2021/01/29 08:01:56;;;;;;;21.87;13.13;;;;;;;;;;5033993;28;20178;-82
2021/01/29 08:04:24;;;;;;;20.53;12.80;;;;;;;;;;5035041;28;20289;-79
2021/01/29 08:06:59;;;;;;;22.43;13.17;;;;;;;;;;5016604;28;20215;-81
2021/01/29 08:09:25;;;;;;;26.73;16.30;;;;;;;;;;5018742;28;20187;-80
2021/01/29 08:12:01;;;;;;;22.13;14.47;;;;;;;;;;5032282;28;20240;-74
2021/01/29 08:14:27;;;;;;;23.73;14.93;;;;;;;;;;5031039;28;20202;-75
2021/01/29 08:17:11;;;;;;;26.70;13.93;;;;;;;;;;5032508;28;20182;-76
2021/01/29 08:19:56;;;;;;;23.47;14.23;;;;;;;;;;5037033;28;20184;-76
2021/01/29 08:22:28;;;;;;;26.20;15.47;;;;;;;;;;5037483;28;20182;-77
2021/01/29 08:24:58;;;;;;;28.57;17.23;;;;;;;;;;5037147;28;20286;-76
2021/01/29 08:27:39;;;;;;;31.47;17.23;;;;;;;;;;5038233;28;20239;-76
2021/01/29 08:30:11;;;;;;;31.57;18.33;;;;;;;;;;5036944;28;20677;-79
2021/01/29 08:32:42;;;;;;;33.57;18.87;;;;;;;;;;5038569;28;20224;-77
2021/01/29 08:35:27;;;;;;;31.10;18.77;;;;;;;;;;5019111;28;20195;-80
2021/01/29 08:38:08;;;;;;;33.23;18.07;;;;;;;;;;5019276;28;20200;-79
2021/01/29 08:40:36;;;;;;;33.83;18.63;;;;;;;;;;5018421;28;20183;-78
2021/01/29 08:43:05;;;;;;;28.37;16.80;;;;;;;;;;5020724;28;20175;-83
2021/01/29 08:45:34;;;;;;;25.83;16.30;;;;;;;;;;5037325;28;20224;-77
2021/01/29 08:48:03;;;;;;;29.40;17.50;;;;;;;;;;5037324;28;20179;-77
2021/01/29 08:50:36;;;;;;;28.77;17.30;;;;;;;;;;5038213;28;20198;-78
2021/01/29 08:53:21;;;;;;;30.40;16.23;;;;;;;;;;5017347;28;20188;-78
2021/01/29 08:55:52;;;;;;;29.20;17.70;;;;;;;;;;5018135;28;20189;-76
2021/01/29 08:58:27;;;;;;;27.63;16.50;;;;;;;;;;5016915;28;20171;-76
2021/01/29 09:00:58;;;;;;;28.30;17.27;;;;;;;;;;5025894;28;20191;-76
2021/01/29 09:03:25;;;;;;;25.23;16.17;;;;;;;;;;5037314;28;20748;-78
2021/01/29 09:05:58;;;;;;;23.87;15.43;;;;;;;;;;5019969;28;20224;-74
2021/01/29 09:08:24;;;;;;;23.30;14.77;;;;;;;;;;5038092;28;20190;-74
2021/01/29 09:11:01;;;;;;;23.07;14.37;;;;;;;;;;5036185;28;20198;-74
2021/01/29 09:13:27;;;;;;;23.73;14.10;;;;;;;;;;5036536;28;20719;-74
2021/01/29 09:15:59;;;;;;;22.97;13.90;;;;;;;;;;5036427;28;20183;-74
2021/01/29 09:18:25;;;;;;;19.80;13.10;;;;;;;;;;5037876;28;20180;-74
2021/01/29 09:21:11;;;;;;;19.67;12.53;;;;;;;;;;5036086;28;20183;-74
2021/01/29 09:23:41;;;;;;;16.43;11.47;;;;;;;;;;5016483;28;20557;-74
2021/01/29 09:26:14;;;;;;;17.90;10.87;;;;;;;;;;5036032;28;20264;-74
2021/01/29 09:28:41;;;;;;;16.03;9.80;;;;;;;;;;5035275;28;20222;-74
2021/01/29 09:31:08;;;;;;;12.90;8.67;;;;;;;;;;5012488;28;20207;-75
2021/01/29 09:33:53;;;;;;;12.53;8.50;;;;;;;;;;5014926;28;20201;-80
2021/01/29 09:36:25;;;;;;;8.97;7.13;;;;;;;;;;5033330;28;20708;-76
2021/01/29 09:38:52;;;;;;;10.70;6.17;;;;;;;;;;5033993;28;20183;-74
2021/01/29 09:41:32;;;;;;;7.63;5.73;;;;;;;;;;5016022;28;20190;-74
2021/01/29 09:44:01;;;;;;;6.93;4.60;;;;;;;;;;5016833;28;20205;-74
2021/01/29 09:46:27;;;;;;;5.50;4.90;;;;;;;;;;5033192;28;20190;-74
2021/01/29 09:48:57;;;;;;;6.27;4.70;;;;;;;;;;5034608;28;20179;-75
2021/01/29 09:51:29;;;;;;;6.63;4.90;;;;;;;;;;5016390;28;20641;-75
2021/01/29 09:54:15;;;;;;;6.20;4.13;;;;;;;;;;5033075;28;20194;-74
2021/01/29 09:56:42;;;;;;;7.00;4.30;;;;;;;;;;5033003;28;20210;-73
2021/01/29 09:59:22;;;;;;;4.17;3.77;;;;;;;;;;5033106;28;20257;-73
2021/01/29 10:01:50;;;;;;;4.20;3.80;;;;;;;;;;5032859;28;20193;-73
2021/01/29 10:04:51;;;;;;;6.23;4.37;;;;;;;;;;5032844;28;20285;-74
2021/01/29 10:07:17;;;;;;;4.10;3.70;;;;;;;;;;5019900;28;20187;-77
2021/01/29 10:09:57;;;;;;;5.50;4.30;;;;;;;;;;5033490;28;20217;-73
2021/01/29 10:12:26;;;;;;;6.10;4.23;;;;;;;;;;5012933;28;20208;-77
2021/01/29 10:15:03;;;;;;;5.97;4.03;;;;;;;;;;5015236;28;20198;-77
2021/01/29 10:17:32;;;;;;;4.20;3.53;;;;;;;;;;5032769;28;20317;-77
2021/01/29 10:19:59;;;;;;;5.37;3.43;;;;;;;;;;5032560;28;20232;-76
2021/01/29 10:22:37;;;;;;;5.87;3.37;;;;;;;;;;5032622;28;20225;-77
2021/01/29 10:25:11;;;;;;;5.90;3.97;;;;;;;;;;5026867;28;20212;-76
2021/01/29 10:27:53;;;;;;;7.30;4.57;;;;;;;;;;5032790;28;20232;-76
2021/01/29 10:30:27;;;;;;;5.60;3.47;;;;;;;;;;5032229;28;20184;-76
2021/01/29 10:32:57;;;;;;;4.23;3.33;;;;;;;;;;5031994;28;20188;-77
2021/01/29 10:35:35;;;;;;;3.23;2.80;;;;;;;;;;5032162;28;20568;-78
2021/01/29 10:38:06;;;;;;;5.13;2.63;;;;;;;;;;5032587;28;20250;-78
2021/01/29 10:40:46;;;;;;;3.53;2.67;;;;;;;;;;5015006;28;20213;-77
2021/01/29 10:43:30;;;;;;;4.27;2.70;;;;;;;;;;5030592;28;20199;-78
2021/01/29 10:46:09;;;;;;;4.73;2.57;;;;;;;;;;5009600;28;20183;-76
2021/01/29 10:48:41;;;;;;;8.87;3.00;;;;;;;;;;5021259;28;20177;-75
2021/01/29 10:51:16;;;;;;;6.97;3.20;;;;;;;;;;5030598;28;20714;-75
2021/01/29 10:53:42;;;;;;;5.90;2.80;;;;;;;;;;5031704;28;20199;-75
2021/01/29 10:56:11;;;;;;;7.87;3.10;;;;;;;;;;5031829;28;20182;-76
2021/01/29 10:58:40;;;;;;;8.60;2.60;;;;;;;;;;5016091;28;20179;-77
2021/01/29 11:01:09;;;;;;;9.83;3.00;;;;;;;;;;5032880;28;20266;-79
2021/01/29 11:03:46;;;;;;;5.73;2.97;;;;;;;;;;5015909;28;20204;-77
2021/01/29 11:06:13;;;;;;;8.50;2.97;;;;;;;;;;5015360;28;20206;-77
2021/01/29 11:08:40;;;;;;;10.87;3.10;;;;;;;;;;5009951;28;20194;-76
2021/01/29 11:11:12;;;;;;;7.57;2.60;;;;;;;;;;5031375;28;20252;-78
2021/01/29 11:13:58;;;;;;;10.23;2.87;;;;;;;;;;5031502;28;20201;-78
2021/01/29 11:16:26;;;;;;;16.23;3.53;;;;;;;;;;5031882;28;20163;-78
2021/01/29 11:18:59;;;;;;;9.63;3.00;;;;;;;;;;5031663;28;20640;-77
2021/01/29 11:21:35;;;;;;;12.10;3.30;;;;;;;;;;5031749;28;20192;-78
2021/01/29 11:24:13;;;;;;;15.83;3.80;;;;;;;;;;5031315;28;20220;-78
2021/01/29 11:26:46;;;;;;;14.97;3.43;;;;;;;;;;5030138;28;20193;-76
2021/01/29 11:29:16;;;;;;;17.63;4.47;;;;;;;;;;5031428;28;20189;-77
2021/01/29 11:31:44;;;;;;;16.03;4.07;;;;;;;;;;5029430;28;20281;-77
2021/01/29 11:34:12;;;;;;;20.57;4.43;;;;;;;;;;5030243;28;20250;-78
2021/01/29 11:36:41;;;;;;;15.37;4.80;;;;;;;;;;5014198;28;20279;-78
2021/01/29 11:39:26;;;;;;;27.37;5.60;;;;;;;;;;5015255;28;20179;-76
2021/01/29 11:42:00;;;;;;;24.87;5.50;;;;;;;;;;5030974;28;20270;-76
2021/01/29 11:44:35;;;;;;;24.60;5.83;;;;;;;;;;5014705;28;20716;-76
2021/01/29 11:47:05;;;;;;;27.40;6.47;;;;;;;;;;5030859;28;20182;-76
2021/01/29 11:49:35;;;;;;;33.97;7.93;;;;;;;;;;5031004;28;20266;-77
2021/01/29 11:52:18;;;;;;;29.53;6.70;;;;;;;;;;5031253;28;20213;-76
2021/01/29 11:54:47;;;;;;;34.80;7.00;;;;;;;;;;5030808;28;20207;-74
2021/01/29 11:57:14;;;;;;;27.07;5.97;;;;;;;;;;5031902;28;20248;-77
2021/01/29 11:59:48;;;;;;;32.97;7.20;;;;;;;;;;5030769;28;20186;-76
2021/01/29 12:02:23;;;;;;;28.13;6.80;;;;;;;;;;5031783;28;20281;-76
2021/01/29 12:04:54;;;;;;;33.20;6.27;;;;;;;;;;5031016;28;20208;-77
2021/01/29 12:07:24;;;;;;;23.60;5.43;;;;;;;;;;5031187;28;20220;-77
2021/01/29 12:09:56;;;;;;;26.53;5.40;;;;;;;;;;5030558;28;20178;-74
2021/01/29 12:12:27;;;;;;;28.50;5.73;;;;;;;;;;5031512;28;20203;-76
2021/01/29 12:14:56;;;;;;;34.03;6.33;;;;;;;;;;5031006;28;20615;-80
2021/01/29 12:17:22;;;;;;;21.07;4.40;;;;;;;;;;5031973;28;20178;-76
2021/01/29 12:19:48;;;;;;;23.43;4.83;;;;;;;;;;5030161;28;20314;-75
2021/01/29 12:22:24;;;;;;;24.30;4.80;;;;;;;;;;5030625;28;20279;-77
2021/01/29 12:24:57;;;;;;;33.80;5.07;;;;;;;;;;5027901;28;20749;-75
2021/01/29 12:27:27;;;;;;;26.23;5.20;;;;;;;;;;5030683;28;20197;-76
2021/01/29 12:30:12;;;;;;;26.90;5.13;;;;;;;;;;5030273;28;20194;-74
2021/01/29 12:32:48;;;;;;;21.83;4.90;;;;;;;;;;5030359;28;20217;-73
2021/01/29 12:35:23;;;;;;;25.27;5.47;;;;;;;;;;5029649;28;20285;-74
2021/01/29 12:38:04;;;;;;;20.83;5.00;;;;;;;;;;5030231;28;20564;-77
2021/01/29 12:40:39;;;;;;;22.37;4.73;;;;;;;;;;5024595;28;20192;-77
2021/01/29 12:43:07;;;;;;;20.53;4.30;;;;;;;;;;5022502;28;20180;-76
2021/01/29 12:45:38;;;;;;;16.10;4.10;;;;;;;;;;5030961;28;20197;-77
2021/01/29 12:48:19;;;;;;;21.87;4.17;;;;;;;;;;5031341;28;20207;-77
2021/01/29 12:50:54;;;;;;;22.60;4.10;;;;;;;;;;5031628;28;20552;-74
2021/01/29 12:53:27;;;;;;;21.63;4.30;;;;;;;;;;5031976;28;20231;-77
2021/01/29 12:56:03;;;;;;;21.20;3.60;;;;;;;;;;5030999;28;20241;-76
2021/01/29 12:58:29;;;;;;;19.43;3.53;;;;;;;;;;5032025;28;20641;-77
2021/01/29 13:01:01;;;;;;;22.07;4.10;;;;;;;;;;5030450;28;20193;-75
2021/01/29 13:03:40;;;;;;;20.90;4.13;;;;;;;;;;5020846;28;20203;-73
2021/01/29 13:06:15;;;;;;;23.40;3.97;;;;;;;;;;5028435;28;20184;-74
2021/01/29 13:08:44;;;;;;;15.80;3.80;;;;;;;;;;5030024;28;20201;-74
2021/01/29 13:11:10;;;;;;;18.33;3.40;;;;;;;;;;5033405;28;20205;-74
2021/01/29 13:13:55;;;;;;;19.63;4.07;;;;;;;;;;5033707;28;20206;-75
2021/01/29 13:16:41;;;;;;;14.93;4.10;;;;;;;;;;5033643;28;20240;-75
2021/01/29 13:19:07;;;;;;;24.43;4.53;;;;;;;;;;5012560;28;20200;-74
2021/01/29 13:21:34;;;;;;;22.07;3.77;;;;;;;;;;5033373;28;20186;-75
2021/01/29 13:24:01;;;;;;;23.80;3.70;;;;;;;;;;5049805;28;20309;-74
2021/01/29 13:26:33;;;;;;;16.80;3.27;;;;;;;;;;5031273;28;20184;-75
2021/01/29 13:29:04;;;;;;;16.10;3.70;;;;;;;;;;5034603;28;20579;-76
2021/01/29 13:31:34;;;;;;;15.57;3.00;;;;;;;;;;5033459;28;20263;-79
2021/01/29 13:34:01;;;;;;;20.53;3.70;;;;;;;;;;5033337;28;20253;-75
2021/01/29 13:36:29;;;;;;;20.13;3.70;;;;;;;;;;5033239;28;20183;-75
2021/01/29 13:39:07;;;;;;;13.40;2.83;;;;;;;;;;5049855;28;20615;-75
2021/01/29 13:41:39;;;;;;;19.90;3.60;;;;;;;;;;5032849;28;20179;-74
2021/01/29 13:44:20;;;;;;;15.10;3.37;;;;;;;;;;5033116;28;20209;-75
2021/01/29 13:46:50;;;;;;;14.97;3.60;;;;;;;;;;5018688;28;20264;-76
2021/01/29 13:49:25;;;;;;;12.67;2.83;;;;;;;;;;5031476;28;20196;-76
2021/01/29 13:51:52;;;;;;;10.43;2.10;;;;;;;;;;5032859;28;20294;-76
2021/01/29 13:54:26;;;;;;;14.37;2.73;;;;;;;;;;5033129;28;20230;-76
2021/01/29 13:56:52;;;;;;;10.83;2.53;;;;;;;;;;5035640;28;20220;-77
2021/01/29 13:59:21;;;;;;;12.07;2.70;;;;;;;;;;5042264;28;20396;-82
2021/01/29 14:01:52;;;;;;;9.90;2.20;;;;;;;;;;5036742;28;20223;-82
2021/01/29 14:04:23;;;;;;;14.67;2.63;;;;;;;;;;5028209;28;20203;-78
2021/01/29 14:06:49;;;;;;;11.20;2.07;;;;;;;;;;5033316;28;20177;-79
2021/01/29 14:09:15;;;;;;;11.50;2.60;;;;;;;;;;5033747;28;20537;-78
2021/01/29 14:11:44;;;;;;;13.27;2.60;;;;;;;;;;5017623;28;20705;-77
2021/01/29 14:14:15;;;;;;;12.57;2.67;;;;;;;;;;5035170;28;20202;-76
2021/01/29 14:17:07;;;;;;;15.60;2.50;;;;;;;;;;5032754;28;20193;-75
2021/01/29 14:19:54;;;;;;;10.60;1.93;;;;;;;;;;5031696;28;20269;-75
2021/01/29 14:22:28;;;;;;;15.67;2.80;;;;;;;;;;5033273;28;20197;-79
2021/01/29 14:24:54;;;;;;;9.40;2.50;;;;;;;;;;5047693;28;20609;-76
2021/01/29 14:27:32;;;;;;;7.90;1.87;;;;;;;;;;5033611;28;20183;-76
2021/01/29 14:30:05;;;;;;;14.80;2.67;;;;;;;;;;5032996;28;20190;-76
2021/01/29 14:32:46;;;;;;;10.37;2.50;;;;;;;;;;5030181;28;20203;-75
2021/01/29 14:35:16;;;;;;;11.57;2.80;;;;;;;;;;5034081;28;20202;-77
2021/01/29 14:37:42;;;;;;;13.83;2.33;;;;;;;;;;5032211;28;20179;-73
2021/01/29 14:40:26;;;;;;;11.33;2.53;;;;;;;;;;5033079;28;20304;-74
2021/01/29 14:42:59;;;;;;;11.90;2.70;;;;;;;;;;5033419;28;20189;-77
2021/01/29 14:45:25;;;;;;;13.40;2.63;;;;;;;;;;5032053;28;20216;-77
2021/01/29 14:48:07;;;;;;;11.83;1.93;;;;;;;;;;5031890;28;20645;-74
2021/01/29 14:50:52;;;;;;;9.50;1.80;;;;;;;;;;5030234;28;20313;-75
2021/01/29 14:53:20;;;;;;;10.80;2.20;;;;;;;;;;5033064;28;20584;-75
2021/01/29 14:55:56;;;;;;;9.90;2.50;;;;;;;;;;5032879;28;20180;-75